Time;durP1;ratioP1;P1;durP2;ratioP2;P2;SDS_P1;SDS_P2;PMS_P1;PMS_P2;Temp;Humidity;BMP_temperature;BMP_pressure;BME280_temperature;BME280_humidity;BME280_pressure;Samples;Min_cycle;Max_cycle;Signal;HPM_P1;HPM_P2
2023/02/20 00:00:24;;;;;;;1.80;1.53;;;8.60;99.90;;;;;;5016707;28;20254;-49
2023/02/20 00:02:51;;;;;;;2.37;1.00;;;8.60;99.90;;;;;;5019409;28;20218;-48
2023/02/20 00:05:19;;;;;;;1.90;1.80;;;8.60;99.90;;;;;;5017894;28;20201;-49
2023/02/20 00:07:46;;;;;;;1.83;1.73;;;8.60;99.90;;;;;;5016229;28;20280;-48
2023/02/20 00:10:13;;;;;;;1.60;1.20;;;8.60;99.90;;;;;;5013165;28;20721;-49
2023/02/20 00:12:40;;;;;;;0.80;0.80;;;8.60;99.90;;;;;;5011658;28;20624;-48
2023/02/20 00:15:08;;;;;;;2.23;1.47;;;8.60;99.90;;;;;;5008892;28;20280;-49
2023/02/20 00:17:41;;;;;;;1.07;0.97;;;8.60;99.90;;;;;;5010410;28;20225;-48
2023/02/20 00:20:09;;;;;;;0.70;0.70;;;8.60;99.90;;;;;;5009750;28;20270;-48
2023/02/20 00:22:40;;;;;;;1.23;1.13;;;8.60;99.90;;;;;;5011496;28;20221;-48
2023/02/20 00:25:07;;;;;;;3.03;0.60;;;8.60;99.90;;;;;;5010529;28;20198;-47
2023/02/20 00:27:34;;;;;;;3.27;0.73;;;8.60;99.90;;;;;;5009316;28;20220;-48
2023/02/20 00:30:01;;;;;;;0.73;0.73;;;8.50;99.90;;;;;;5011536;28;20220;-48
2023/02/20 00:32:28;;;;;;;2.03;0.70;;;8.50;99.90;;;;;;5009635;28;20197;-48
2023/02/20 00:34:57;;;;;;;2.23;0.97;;;8.50;99.90;;;;;;5007545;28;20205;-47
2023/02/20 00:37:24;;;;;;;0.70;0.70;;;8.50;99.90;;;;;;4999701;28;20233;-48
2023/02/20 00:39:51;;;;;;;2.10;1.10;;;8.50;99.90;;;;;;5010467;28;20212;-48
2023/02/20 00:42:18;;;;;;;2.87;1.10;;;8.50;99.90;;;;;;5009487;28;20204;-49
2023/02/20 00:44:44;;;;;;;2.00;0.87;;;8.40;99.90;;;;;;5008799;28;20738;-48
2023/02/20 00:47:11;;;;;;;1.80;0.88;;;8.50;99.90;;;;;;5009330;28;20446;-46
2023/02/20 00:49:38;;;;;;;4.63;1.07;;;8.50;99.90;;;;;;5007043;28;20209;-49
2023/02/20 00:52:07;;;;;;;1.77;1.40;;;8.50;99.90;;;;;;5011081;28;20198;-47
2023/02/20 00:54:34;;;;;;;2.00;1.10;;;8.50;99.90;;;;;;5007860;28;20681;-48
2023/02/20 00:57:01;;;;;;;1.17;1.00;;;8.50;99.90;;;;;;4998832;28;20227;-49
2023/02/20 00:59:28;;;;;;;1.63;0.93;;;8.50;99.90;;;;;;5009301;28;20214;-48
2023/02/20 01:01:55;;;;;;;2.47;0.80;;;8.50;99.90;;;;;;5006813;28;20203;-48
2023/02/20 01:04:22;;;;;;;0.80;0.80;;;8.60;99.90;;;;;;5007600;28;20217;-47
2023/02/20 01:06:49;;;;;;;1.03;1.00;;;8.60;99.90;;;;;;5010814;28;20291;-49
2023/02/20 01:09:17;;;;;;;1.43;0.83;;;8.60;99.90;;;;;;5006935;28;20259;-48
2023/02/20 01:11:45;;;;;;;2.00;1.00;;;8.60;99.90;;;;;;5009026;28;20251;-48
2023/02/20 01:14:13;;;;;;;3.17;0.90;;;8.60;99.90;;;;;;5009689;28;20201;-47
2023/02/20 01:16:44;;;;;;;3.30;1.30;;;8.60;99.90;;;;;;5008590;28;20221;-47
2023/02/20 01:19:11;;;;;;;0.73;0.73;;;8.60;99.90;;;;;;5008812;28;20279;-48
2023/02/20 01:21:39;;;;;;;3.20;1.40;;;8.60;99.90;;;;;;5011180;28;20205;-50
2023/02/20 01:24:06;;;;;;;1.07;0.97;;;8.60;99.90;;;;;;5010959;28;20702;-48
2023/02/20 01:26:36;;;;;;;0.93;0.93;;;8.60;99.90;;;;;;5009663;28;20231;-49
2023/02/20 01:29:03;;;;;;;2.97;1.27;;;8.50;99.90;;;;;;5010717;28;20205;-47
2023/02/20 01:31:30;;;;;;;1.43;0.60;;;8.60;99.90;;;;;;5008676;28;20251;-47
2023/02/20 01:33:57;;;;;;;1.17;1.13;;;8.50;99.90;;;;;;5009432;28;20717;-48
2023/02/20 01:36:26;;;;;;;1.87;1.00;;;8.50;99.90;;;;;;5010834;28;20291;-47
2023/02/20 01:38:53;;;;;;;1.97;1.17;;;8.60;99.90;;;;;;5011024;28;20625;-47
2023/02/20 01:41:20;;;;;;;1.30;1.20;;;8.50;99.90;;;;;;5010861;28;20212;-48
2023/02/20 01:43:49;;;;;;;1.60;1.23;;;8.60;99.90;;;;;;5007151;28;20219;-50
2023/02/20 01:46:43;;;;;;;1.47;1.37;;;8.60;99.90;;;;;;5009331;28;20791;-48
2023/02/20 01:49:14;;;;;;;1.30;1.20;;;8.50;99.90;;;;;;5007477;28;20204;-48
2023/02/20 01:51:47;;;;;;;2.23;1.10;;;8.60;99.90;;;;;;5014571;28;20252;-48
2023/02/20 01:54:18;;;;;;;2.97;2.27;;;8.60;99.90;;;;;;5014387;28;20754;-49
2023/02/20 01:56:47;;;;;;;2.70;1.60;;;8.50;99.90;;;;;;5011057;28;20244;-48
2023/02/20 01:59:17;;;;;;;2.77;2.43;;;8.60;99.90;;;;;;5014322;28;20248;-50
2023/02/20 02:01:44;;;;;;;3.47;3.13;;;8.50;99.90;;;;;;5014322;28;20205;-48
2023/02/20 02:04:13;;;;;;;2.77;1.47;;;8.50;99.90;;;;;;5009361;28;20236;-48
2023/02/20 02:06:44;;;;;;;1.23;1.07;;;8.50;99.90;;;;;;5010628;28;20241;-48
2023/02/20 02:09:17;;;;;;;1.37;1.37;;;8.50;99.90;;;;;;5012140;28;20209;-49
2023/02/20 02:11:45;;;;;;;3.67;3.27;;;8.50;99.90;;;;;;5014221;28;20196;-49
2023/02/20 02:14:12;;;;;;;1.87;1.63;;;8.50;99.90;;;;;;5014146;28;20226;-48
2023/02/20 02:16:49;;;;;;;2.60;1.73;;;8.50;99.90;;;;;;5013682;28;20783;-48
2023/02/20 02:19:32;;;;;;;1.63;1.23;;;8.50;99.90;;;;;;5010420;28;20202;-48
2023/02/20 02:22:28;;;;;;;1.60;1.20;;;8.50;99.90;;;;;;5013638;28;20206;-49
2023/02/20 02:25:21;;;;;;;1.20;1.20;;;8.40;99.90;;;;;;5014121;28;20229;-48
2023/02/20 02:28:36;;;;;;;2.03;1.37;;;8.40;99.90;;;;;;5012310;28;20380;-50
2023/02/20 02:31:37;;;;;;;1.83;1.00;;;8.40;99.90;;;;;;4955909;28;20298;-49
2023/02/20 02:34:51;;;;;;;1.70;1.27;;;8.40;99.90;;;;;;5001383;28;20614;-47
2023/02/20 02:37:25;;;;;;;2.73;1.07;;;8.40;99.90;;;;;;4947012;28;20286;-47
2023/02/20 02:39:59;;;;;;;4.10;1.10;;;8.50;99.90;;;;;;4951715;29;20288;-48
2023/02/20 02:42:38;;;;;;;2.33;1.60;;;8.40;99.90;;;;;;4991188;28;20247;-48
2023/02/20 02:45:12;;;;;;;2.00;1.00;;;8.30;99.90;;;;;;5013410;28;20233;-48
2023/02/20 02:47:46;;;;;;;1.57;1.00;;;8.30;99.90;;;;;;5011521;28;20235;-49
2023/02/20 02:50:18;;;;;;;2.70;1.17;;;8.20;99.90;;;;;;5007458;28;20203;-48
2023/02/20 02:52:48;;;;;;;1.60;1.50;;;8.20;99.90;;;;;;5010818;28;20213;-50
2023/02/20 02:55:18;;;;;;;2.30;1.70;;;8.20;99.90;;;;;;5011325;28;20903;-49
2023/02/20 02:57:45;;;;;;;1.40;1.30;;;8.20;99.90;;;;;;5011994;28;20246;-49
2023/02/20 03:00:17;;;;;;;1.63;1.53;;;8.20;99.90;;;;;;5013077;28;20240;-48
2023/02/20 03:02:50;;;;;;;3.43;1.50;;;8.20;99.90;;;;;;5013203;28;20301;-49
2023/02/20 03:05:21;;;;;;;1.40;1.27;;;8.20;99.90;;;;;;5011268;28;20229;-48
2023/02/20 03:07:54;;;;;;;3.10;1.70;;;8.20;99.90;;;;;;5012393;28;20232;-47
2023/02/20 03:10:30;;;;;;;5.77;2.03;;;8.20;99.90;;;;;;5010012;28;20196;-49
2023/02/20 03:13:02;;;;;;;2.00;1.90;;;8.20;99.90;;;;;;5013231;28;20630;-48
2023/02/20 03:15:34;;;;;;;1.97;1.37;;;8.20;99.90;;;;;;5010015;28;20639;-48
2023/02/20 03:18:19;;;;;;;2.00;1.10;;;8.20;99.90;;;;;;5011103;28;20241;-48
2023/02/20 03:20:51;;;;;;;5.23;1.20;;;8.20;99.90;;;;;;5012729;28;20201;-48
2023/02/20 03:23:23;;;;;;;4.67;1.80;;;8.10;99.90;;;;;;5011172;28;20207;-47
2023/02/20 03:25:55;;;;;;;1.10;1.00;;;8.10;99.90;;;;;;5010756;28;20208;-48
2023/02/20 03:28:24;;;;;;;2.83;1.23;;;8.10;99.90;;;;;;5012375;28;20201;-48
2023/02/20 03:30:56;;;;;;;2.53;1.17;;;8.10;99.90;;;;;;5010700;28;20739;-48
2023/02/20 03:44:45;;;;;;;1.67;1.47;;;8.10;99.90;;;;;;5009385;28;20236;-47
2023/02/20 03:47:17;;;;;;;1.83;1.17;;;8.00;99.90;;;;;;5011380;28;20219;-47
2023/02/20 03:49:46;;;;;;;1.90;1.40;;;7.90;99.90;;;;;;5012077;28;20256;-48
2023/02/20 03:52:12;;;;;;;3.23;1.93;;;7.90;99.90;;;;;;5010787;28;20265;-48
2023/02/20 03:54:42;;;;;;;2.57;1.70;;;7.90;99.90;;;;;;5009222;28;20201;-48
2023/02/20 03:57:13;;;;;;;7.17;1.40;;;7.90;99.90;;;;;;5011815;28;20212;-48
2023/02/20 03:59:44;;;;;;;3.93;1.40;;;7.80;99.90;;;;;;5010051;28;20204;-50
2023/02/20 04:02:17;;;;;;;5.03;2.33;;;7.80;99.90;;;;;;5011944;28;20222;-48
2023/02/20 04:04:48;;;;;;;1.93;1.73;;;7.80;99.90;;;;;;5011111;28;20289;-47
2023/02/20 04:07:20;;;;;;;2.63;2.50;;;7.70;99.90;;;;;;5009733;28;20305;-49
2023/02/20 04:09:48;;;;;;;2.40;2.20;;;7.60;99.90;;;;;;5009921;28;20298;-49
2023/02/20 04:12:22;;;;;;;3.43;2.40;;;7.60;99.90;;;;;;5008929;28;20643;-48
2023/02/20 04:14:51;;;;;;;3.07;1.47;;;7.50;99.90;;;;;;4992539;28;20198;-47
2023/02/20 04:17:24;;;;;;;3.67;1.23;;;7.40;99.90;;;;;;5006269;28;20221;-48
2023/02/20 04:19:51;;;;;;;3.20;1.60;;;7.40;99.90;;;;;;5009559;28;20208;-50
2023/02/20 04:22:22;;;;;;;1.87;1.60;;;7.30;99.90;;;;;;5010492;28;20255;-48
2023/02/20 04:24:54;;;;;;;3.50;1.40;;;7.20;99.90;;;;;;5003648;28;20311;-48
2023/02/20 04:27:21;;;;;;;2.27;1.60;;;7.20;99.90;;;;;;5011510;28;20287;-49
2023/02/20 04:29:48;;;;;;;2.20;1.20;;;7.10;99.90;;;;;;5006722;28;20259;-47
2023/02/20 04:32:15;;;;;;;3.60;1.10;;;7.10;99.90;;;;;;5010729;28;20736;-48
2023/02/20 04:34:43;;;;;;;2.77;1.63;;;7.10;99.90;;;;;;5007401;28;20667;-49
2023/02/20 04:37:13;;;;;;;2.83;1.40;;;7.10;99.90;;;;;;5010243;28;20219;-48
2023/02/20 04:39:40;;;;;;;2.33;0.90;;;7.00;99.90;;;;;;5010609;28;20263;-48
2023/02/20 04:42:08;;;;;;;5.67;1.60;;;7.00;99.90;;;;;;5010954;28;20267;-48
2023/02/20 04:44:35;;;;;;;1.63;0.90;;;7.00;99.90;;;;;;5011479;28;20221;-47
2023/02/20 04:47:04;;;;;;;3.50;1.50;;;6.90;99.90;;;;;;5009190;28;20234;-47
2023/02/20 04:49:31;;;;;;;1.43;1.40;;;6.80;99.90;;;;;;5008590;28;20201;-49
2023/02/20 04:51:59;;;;;;;1.00;1.00;;;6.70;99.90;;;;;;5011368;28;20196;-49
2023/02/20 04:54:27;;;;;;;2.13;2.00;;;6.60;99.90;;;;;;5011453;28;20201;-48
2023/02/20 04:56:54;;;;;;;1.87;1.57;;;6.70;99.90;;;;;;5008931;28;20232;-49
2023/02/20 04:59:24;;;;;;;2.40;2.17;;;6.60;99.90;;;;;;5009568;28;20266;-48
2023/02/20 05:01:53;;;;;;;3.17;1.13;;;6.60;99.90;;;;;;5016322;28;20201;-47
2023/02/20 05:04:21;;;;;;;3.67;1.27;;;6.50;99.90;;;;;;5031057;28;20223;-47
2023/02/20 05:06:51;;;;;;;2.23;1.43;;;6.50;99.90;;;;;;5007422;28;20243;-47
2023/02/20 05:09:19;;;;;;;3.33;1.50;;;6.40;99.90;;;;;;5010247;28;20197;-48
2023/02/20 05:11:46;;;;;;;7.13;1.53;;;6.30;99.90;;;;;;5008676;28;20251;-48
2023/02/20 05:14:13;;;;;;;3.77;1.53;;;6.30;99.90;;;;;;5011034;28;20204;-47
2023/02/20 05:16:44;;;;;;;2.70;1.27;;;6.20;99.90;;;;;;5011065;28;20267;-48
2023/02/20 05:19:11;;;;;;;1.83;1.60;;;6.20;99.90;;;;;;5011207;28;20215;-47
2023/02/20 05:24:23;;;;;;;1.13;1.13;;;6.40;99.90;;;;;;5012606;28;20306;-48
2023/02/20 05:26:50;;;;;;;1.50;1.40;;;6.40;99.90;;;;;;5015814;28;20254;-49
2023/02/20 05:29:17;;;;;;;2.83;1.13;;;6.50;99.90;;;;;;5012298;28;20262;-47
2023/02/20 05:31:45;;;;;;;6.83;1.83;;;6.40;99.90;;;;;;5013771;28;20255;-47
2023/02/20 05:34:12;;;;;;;5.00;1.23;;;6.40;99.90;;;;;;5013264;28;20201;-49
2023/02/20 05:36:39;;;;;;;2.73;1.60;;;6.30;99.90;;;;;;5008245;28;20359;-48
2023/02/20 05:39:06;;;;;;;1.40;1.30;;;6.30;99.90;;;;;;5012454;28;20280;-49
2023/02/20 05:41:34;;;;;;;11.50;1.93;;;6.30;99.90;;;;;;5014529;28;20197;-47
2023/02/20 05:44:01;;;;;;;4.90;1.07;;;6.30;99.90;;;;;;5012650;28;20267;-48
2023/02/20 05:46:28;;;;;;;1.73;0.90;;;6.30;99.90;;;;;;5013308;28;20638;-47
2023/02/20 05:48:57;;;;;;;2.07;0.93;;;6.30;99.90;;;;;;5013388;28;20205;-48
2023/02/20 05:51:27;;;;;;;2.20;1.37;;;6.30;99.90;;;;;;5011653;28;20231;-47
2023/02/20 05:53:55;;;;;;;1.73;0.97;;;6.20;99.90;;;;;;5012122;28;20272;-49
2023/02/20 05:56:22;;;;;;;1.43;1.27;;;6.20;99.90;;;;;;5013880;28;20225;-47
2023/02/20 05:58:49;;;;;;;1.50;1.43;;;6.20;99.90;;;;;;5011544;28;20213;-49
2023/02/20 06:01:21;;;;;;;2.70;1.97;;;6.30;99.90;;;;;;5013959;28;20260;-47
2023/02/20 06:03:48;;;;;;;1.60;1.50;;;6.30;99.90;;;;;;5014443;28;20262;-48
2023/02/20 06:06:17;;;;;;;1.50;1.37;;;6.30;99.90;;;;;;5039528;22;20239;-50
2023/02/20 06:08:44;;;;;;;2.97;1.63;;;6.30;99.90;;;;;;5052984;28;20224;-47
2023/02/20 06:11:12;;;;;;;4.73;2.30;;;6.30;99.90;;;;;;5059787;28;20206;-47
2023/02/20 06:13:40;;;;;;;2.33;1.90;;;6.30;99.90;;;;;;5062820;28;20262;-47
2023/02/20 06:16:08;;;;;;;3.33;2.13;;;6.30;99.90;;;;;;5052644;28;20725;-46
2023/02/20 06:18:39;;;;;;;3.87;2.20;;;6.30;99.90;;;;;;5049141;28;20257;-46
2023/02/20 06:21:08;;;;;;;2.37;2.07;;;6.30;99.90;;;;;;5067446;28;20195;-46
2023/02/20 06:23:40;;;;;;;2.03;1.80;;;6.30;99.90;;;;;;5053583;28;20306;-46
2023/02/20 06:26:07;;;;;;;5.93;2.30;;;6.30;99.90;;;;;;5053594;28;20273;-47
2023/02/20 06:28:35;;;;;;;3.17;1.93;;;6.20;99.90;;;;;;5053371;28;20210;-47
2023/02/20 06:31:02;;;;;;;2.10;2.00;;;6.20;99.90;;;;;;5053445;28;20206;-45
2023/02/20 06:33:29;;;;;;;2.30;2.10;;;6.20;99.90;;;;;;5052755;28;20653;-47
2023/02/20 06:35:56;;;;;;;3.87;2.40;;;6.20;99.90;;;;;;5052252;28;20211;-45
2023/02/20 06:38:23;;;;;;;1.93;1.83;;;6.30;99.90;;;;;;5053015;28;20694;-47
2023/02/20 06:40:52;;;;;;;5.53;3.47;;;6.20;99.90;;;;;;5053960;28;20207;-47
2023/02/20 06:43:19;;;;;;;2.93;2.67;;;6.30;99.90;;;;;;5053322;28;20207;-47
2023/02/20 06:45:47;;;;;;;2.77;2.57;;;6.30;99.90;;;;;;5062220;28;20264;-50
2023/02/20 06:48:14;;;;;;;3.87;3.17;;;6.30;99.90;;;;;;5062781;28;20217;-46
2023/02/20 06:50:42;;;;;;;4.07;3.00;;;6.30;99.90;;;;;;5047976;28;20207;-48
2023/02/20 06:53:09;;;;;;;5.40;3.50;;;6.30;99.90;;;;;;5059193;28;20206;-48
2023/02/20 06:55:36;;;;;;;3.50;3.20;;;6.40;99.90;;;;;;5057229;28;20204;-46
2023/02/20 06:58:04;;;;;;;2.50;2.37;;;6.50;99.90;;;;;;5052617;28;20279;-46
2023/02/20 07:00:31;;;;;;;2.43;1.97;;;6.60;99.90;;;;;;5052762;28;20266;-48
2023/02/20 07:02:58;;;;;;;2.20;2.00;;;6.80;99.90;;;;;;5052982;28;20202;-47
2023/02/20 07:05:25;;;;;;;2.27;1.63;;;7.10;99.90;;;;;;5052820;28;20271;-47
2023/02/20 07:07:52;;;;;;;2.43;1.97;;;7.30;99.90;;;;;;5052513;28;20232;-47
2023/02/20 07:10:19;;;;;;;3.43;1.93;;;7.50;99.90;;;;;;5052754;28;20208;-46
2023/02/20 07:12:46;;;;;;;2.37;1.70;;;7.70;99.90;;;;;;5052684;28;20292;-47
2023/02/20 07:15:15;;;;;;;2.67;2.43;;;7.80;99.90;;;;;;5052554;28;20606;-47
2023/02/20 07:17:42;;;;;;;2.37;2.17;;;8.00;99.90;;;;;;5053359;28;20250;-46
2023/02/20 07:20:10;;;;;;;2.07;1.97;;;8.10;99.90;;;;;;5052633;28;20274;-47
2023/02/20 07:22:38;;;;;;;2.67;2.07;;;8.10;99.90;;;;;;5052541;28;20202;-46
2023/02/20 07:25:06;;;;;;;2.77;2.10;;;8.10;99.90;;;;;;5051378;28;20366;-48
2023/02/20 07:27:33;;;;;;;3.33;2.63;;;8.20;99.90;;;;;;5051901;28;20289;-47
2023/02/20 07:30:00;;;;;;;2.60;2.40;;;8.30;99.90;;;;;;5052300;28;20211;-47
2023/02/20 07:32:28;;;;;;;4.43;2.23;;;8.40;99.90;;;;;;5052313;28;20207;-46
2023/02/20 07:34:56;;;;;;;4.80;2.63;;;8.40;99.90;;;;;;5051720;28;20568;-47
2023/02/20 07:37:23;;;;;;;1.97;1.87;;;8.40;99.90;;;;;;5052062;28;20285;-47
2023/02/20 07:39:50;;;;;;;3.40;3.10;;;8.40;99.90;;;;;;5050269;28;20255;-46
2023/02/20 07:42:17;;;;;;;4.83;2.30;;;8.60;99.90;;;;;;5050880;28;20201;-46
2023/02/20 07:44:45;;;;;;;3.50;2.77;;;8.80;99.90;;;;;;5050787;28;20243;-47
2023/02/20 07:47:12;;;;;;;3.00;2.63;;;8.90;99.90;;;;;;5046701;28;20310;-47
2023/02/20 07:49:41;;;;;;;2.83;2.00;;;8.70;99.90;;;;;;5061565;28;20295;-46
2023/02/20 07:52:08;;;;;;;4.53;2.23;;;8.80;99.90;;;;;;5060831;28;20198;-47
2023/02/20 07:54:35;;;;;;;3.33;2.10;;;9.10;99.90;;;;;;5054227;28;20593;-47
2023/02/20 07:57:02;;;;;;;2.10;1.80;;;9.30;99.90;;;;;;5051083;28;20216;-49
2023/02/20 07:59:29;;;;;;;3.63;1.93;;;9.60;99.90;;;;;;5048479;28;20285;-48
2023/02/20 08:01:56;;;;;;;1.97;1.40;;;9.70;99.90;;;;;;5051931;28;20299;-49
2023/02/20 08:04:23;;;;;;;2.23;2.13;;;10.10;99.90;;;;;;5052015;28;20204;-47
2023/02/20 08:06:51;;;;;;;3.13;1.63;;;10.60;99.90;;;;;;5052358;28;20272;-49
2023/02/20 08:09:18;;;;;;;2.73;1.90;;;11.00;99.90;;;;;;5038399;28;20205;-49
2023/02/20 08:11:45;;;;;;;6.73;2.33;;;11.20;99.90;;;;;;5031678;28;20674;-48
2023/02/20 08:14:14;;;;;;;2.23;1.70;;;10.90;99.90;;;;;;5031877;28;20208;-48
2023/02/20 08:16:41;;;;;;;7.67;1.63;;;11.00;99.90;;;;;;5039366;28;20224;-49
2023/02/20 08:19:08;;;;;;;3.45;2.05;;;11.10;99.90;;;;;;5048526;28;20513;-49
2023/02/20 08:21:35;;;;;;;4.50;2.10;;;10.90;99.90;;;;;;5059475;28;20245;-49
2023/02/20 08:24:03;;;;;;;2.70;2.47;;;10.80;99.90;;;;;;5071187;28;20283;-49
2023/02/20 08:26:30;;;;;;;7.80;2.23;;;10.90;99.90;;;;;;5061750;28;20623;-49
2023/02/20 08:28:57;;;;;;;2.10;1.90;;;11.00;99.90;;;;;;5051181;28;20285;-49
2023/02/20 08:31:26;;;;;;;4.53;1.50;;;11.10;99.90;;;;;;5051198;28;20226;-49
2023/02/20 08:33:53;;;;;;;4.13;1.40;;;11.20;99.90;;;;;;5050301;28;20223;-49
2023/02/20 08:36:20;;;;;;;3.63;1.87;;;11.00;99.90;;;;;;5051119;28;20202;-49
2023/02/20 08:38:47;;;;;;;3.63;1.53;;;11.00;99.90;;;;;;5051092;28;20193;-49
2023/02/20 08:41:15;;;;;;;9.63;2.43;;;11.00;99.90;;;;;;5051038;28;20680;-49
2023/02/20 08:43:44;;;;;;;2.73;2.17;;;10.80;99.90;;;;;;5050662;28;20619;-49
2023/02/20 08:46:11;;;;;;;2.53;1.60;;;11.10;99.90;;;;;;5055830;28;20217;-50
2023/02/20 08:48:38;;;;;;;2.67;1.90;;;11.20;99.90;;;;;;5062561;28;20665;-48
2023/02/20 08:51:06;;;;;;;2.20;1.73;;;11.30;99.90;;;;;;5057948;28;20210;-50
2023/02/20 08:53:34;;;;;;;2.33;1.70;;;11.40;99.90;;;;;;5051183;28;20208;-50
2023/02/20 08:56:01;;;;;;;3.40;2.40;;;11.50;99.90;;;;;;5050996;28;20259;-49
2023/02/20 08:58:30;;;;;;;1.87;1.40;;;11.80;99.90;;;;;;5053687;28;20223;-49
2023/02/20 09:00:57;;;;;;;6.53;1.90;;;12.10;99.90;;;;;;5063762;28;20214;-49
2023/02/20 09:03:25;;;;;;;1.83;1.70;;;12.30;99.90;;;;;;5054761;28;20260;-50
2023/02/20 09:05:53;;;;;;;3.43;1.47;;;12.30;99.90;;;;;;5054996;28;20281;-53
2023/02/20 09:08:20;;;;;;;1.80;1.70;;;12.80;99.90;;;;;;5054387;28;20233;-50
2023/02/20 09:10:47;;;;;;;1.90;1.40;;;13.30;99.90;;;;;;5054861;28;20204;-49
2023/02/20 09:13:14;;;;;;;1.90;1.80;;;14.00;99.90;;;;;;5054616;28;20577;-50
2023/02/20 09:15:42;;;;;;;2.30;1.50;;;14.90;99.90;;;;;;5061600;28;20208;-50
2023/02/20 09:18:14;;;;;;;3.80;1.37;;;15.50;99.90;;;;;;5067343;28;20270;-50
2023/02/20 09:20:41;;;;;;;4.20;1.50;;;16.10;99.90;;;;;;5074420;28;20196;-50
2023/02/20 09:23:09;;;;;;;1.87;1.77;;;16.30;99.90;;;;;;5067849;28;20194;-50
2023/02/20 09:25:36;;;;;;;2.17;1.93;;;16.30;99.90;;;;;;5053657;28;20731;-51
2023/02/20 09:28:03;;;;;;;1.60;1.20;;;16.70;99.90;;;;;;5053887;28;20649;-50
2023/02/20 09:30:30;;;;;;;5.40;2.40;;;17.20;99.90;;;;;;5053831;28;20198;-50
2023/02/20 09:32:59;;;;;;;2.00;1.90;;;17.40;99.90;;;;;;5061382;28;20200;-49
2023/02/20 09:35:28;;;;;;;2.10;2.00;;;17.50;99.90;;;;;;5069409;28;20197;-47
2023/02/20 09:37:55;;;;;;;2.37;2.27;;;17.50;99.90;;;;;;5073209;28;20307;-46
2023/02/20 09:40:23;;;;;;;4.83;2.77;;;17.90;99.90;;;;;;5061202;28;20637;-47
2023/02/20 09:43:03;;;;;;;2.47;2.10;;;18.00;99.90;;;;;;5050869;28;20533;-51
2023/02/20 09:45:33;;;;;;;3.63;1.67;;;17.60;99.90;;;;;;5059402;28;20598;-50
2023/02/20 09:48:20;;;;;;;2.60;2.00;;;17.20;99.90;;;;;;5047753;28;20283;-50
2023/02/20 09:50:51;;;;;;;1.47;1.47;;;17.20;99.90;;;;;;5055726;28;20263;-50
2023/02/20 09:53:23;;;;;;;5.40;1.90;;;17.50;99.90;;;;;;5072630;28;20201;-50
2023/02/20 09:55:52;;;;;;;2.50;2.30;;;18.00;99.90;;;;;;5060826;28;20305;-50
2023/02/20 09:58:25;;;;;;;2.53;2.37;;;18.00;99.90;;;;;;5067702;28;20298;-50
2023/02/20 10:00:52;;;;;;;2.77;2.40;;;18.10;99.90;;;;;;5073109;28;20205;-50
2023/02/20 10:03:29;;;;;;;3.43;2.20;;;18.20;99.90;;;;;;5051311;28;20259;-50
2023/02/20 10:05:57;;;;;;;2.83;2.30;;;18.40;99.90;;;;;;5055094;28;20239;-49
2023/02/20 10:08:24;;;;;;;2.23;2.13;;;18.70;99.90;;;;;;5056709;28;20295;-49
2023/02/20 10:10:55;;;;;;;3.10;1.90;;;19.00;99.90;;;;;;5053478;28;20579;-50
2023/02/20 10:13:36;;;;;;;3.13;2.50;;;19.30;99.90;;;;;;5053070;28;20206;-47
2023/02/20 10:16:14;;;;;;;2.53;1.93;;;19.50;99.90;;;;;;5056519;28;20717;-50
2023/02/20 10:18:50;;;;;;;2.83;2.07;;;19.40;99.90;;;;;;5052100;28;20564;-49
2023/02/20 10:21:31;;;;;;;4.40;2.07;;;19.40;99.90;;;;;;5065792;28;20577;-50
2023/02/20 10:24:05;;;;;;;1.87;1.67;;;19.20;99.90;;;;;;5052171;28;20263;-47
2023/02/20 10:26:35;;;;;;;1.73;1.40;;;19.50;99.90;;;;;;5052479;28;20638;-47
2023/02/20 10:29:14;;;;;;;2.60;1.20;;;19.50;99.90;;;;;;5052565;28;20273;-47
2023/02/20 10:31:46;;;;;;;1.07;1.07;;;19.50;99.90;;;;;;5051480;28;20652;-48
2023/02/20 10:34:22;;;;;;;3.77;2.67;;;19.20;99.70;;;;;;5059184;28;20285;-47
2023/02/20 10:36:52;;;;;;;2.03;1.70;;;19.10;99.90;;;;;;5065213;28;20224;-47
2023/02/20 10:39:21;;;;;;;5.30;1.53;;;18.80;99.80;;;;;;5063971;28;20224;-47
2023/02/20 10:41:54;;;;;;;1.30;1.30;;;18.40;99.90;;;;;;5053966;28;20288;-48
2023/02/20 10:44:27;;;;;;;1.40;1.40;;;18.40;99.90;;;;;;5052283;28;20256;-47
2023/02/20 10:47:00;;;;;;;6.37;2.00;;;18.40;99.90;;;;;;5051952;28;20275;-48
2023/02/20 10:49:36;;;;;;;2.97;1.80;;;18.50;99.90;;;;;;5052335;28;20202;-48
2023/02/20 10:52:07;;;;;;;1.50;1.40;;;18.30;99.90;;;;;;5052109;28;20709;-48
2023/02/20 10:54:38;;;;;;;2.27;1.67;;;18.30;99.20;;;;;;5051705;28;20198;-49
2023/02/20 10:57:10;;;;;;;1.80;1.70;;;18.40;98.80;;;;;;5048272;28;20252;-48
2023/02/20 10:59:43;;;;;;;2.23;2.00;;;18.10;99.90;;;;;;5052067;28;20244;-47
2023/02/20 11:02:18;;;;;;;5.80;2.40;;;17.80;99.90;;;;;;5051680;28;20615;-48
2023/02/20 11:04:52;;;;;;;2.97;1.43;;;17.30;99.90;;;;;;5052138;28;20212;-48
2023/02/20 11:07:21;;;;;;;1.77;1.63;;;17.10;99.90;;;;;;5049889;28;20452;-50
2023/02/20 11:09:48;;;;;;;3.37;2.50;;;16.80;99.90;;;;;;5053257;28;20629;-50
2023/02/20 11:12:25;;;;;;;5.00;1.80;;;16.40;99.90;;;;;;5063323;28;20663;-50
2023/02/20 11:14:55;;;;;;;2.67;2.37;;;16.20;99.90;;;;;;5060172;28;20189;-51
2023/02/20 11:17:26;;;;;;;2.83;2.63;;;15.90;99.90;;;;;;5051692;28;20703;-50
2023/02/20 11:19:56;;;;;;;3.53;3.23;;;15.80;99.90;;;;;;5052134;28;20205;-50
2023/02/20 11:22:44;;;;;;;6.17;2.93;;;15.50;99.90;;;;;;5052272;28;20202;-50
2023/02/20 11:25:17;;;;;;;5.47;2.60;;;15.30;99.90;;;;;;5058141;28;20338;-49
2023/02/20 11:27:46;;;;;;;3.87;2.57;;;14.80;99.90;;;;;;5053051;28;20221;-49
2023/02/20 11:30:29;;;;;;;2.80;2.57;;;14.50;99.90;;;;;;5058467;28;20722;-49
2023/02/20 11:33:05;;;;;;;3.40;2.43;;;14.40;99.90;;;;;;5056582;28;20599;-50
2023/02/20 11:35:37;;;;;;;6.83;3.00;;;14.40;99.90;;;;;;5051676;28;20255;-50
2023/02/20 11:38:33;;;;;;;2.30;2.03;;;14.40;99.90;;;;;;5071945;28;20221;-49
2023/02/20 11:41:23;;;;;;;2.63;1.87;;;14.30;99.90;;;;;;5040869;28;20201;-51
2023/02/20 11:44:06;;;;;;;4.93;2.03;;;14.30;99.90;;;;;;5058368;28;20288;-49
2023/02/20 11:46:33;;;;;;;3.03;2.07;;;14.40;99.90;;;;;;5051883;28;20279;-49
2023/02/20 11:49:04;;;;;;;3.17;2.77;;;14.40;99.90;;;;;;5051799;28;20202;-48
2023/02/20 11:51:38;;;;;;;5.10;2.43;;;14.20;99.90;;;;;;5051784;28;20228;-49
2023/02/20 11:54:13;;;;;;;3.53;2.37;;;14.10;99.90;;;;;;5051682;28;20733;-49
2023/02/20 11:56:58;;;;;;;8.03;2.70;;;14.00;99.90;;;;;;5058644;28;20281;-48
2023/02/20 11:59:32;;;;;;;2.27;2.00;;;13.40;99.90;;;;;;5051790;28;20216;-47
2023/02/20 12:02:26;;;;;;;2.80;2.53;;;12.90;99.90;;;;;;5051911;28;20207;-50
2023/02/20 12:05:11;;;;;;;4.30;2.20;;;12.80;99.90;;;;;;5051998;28;20609;-49
2023/02/20 12:07:44;;;;;;;8.03;2.57;;;12.80;99.90;;;;;;5051088;28;20263;-48
2023/02/20 12:10:23;;;;;;;4.33;2.17;;;12.90;99.90;;;;;;5059590;28;20266;-49
2023/02/20 12:12:51;;;;;;;5.30;2.30;;;12.80;99.90;;;;;;5070990;28;20274;-48
2023/02/20 12:15:22;;;;;;;5.10;2.17;;;12.80;99.90;;;;;;5066897;28;20268;-48
2023/02/20 12:18:14;;;;;;;5.50;2.00;;;12.80;99.90;;;;;;5052210;28;20278;-48
2023/02/20 12:20:46;;;;;;;1.93;1.60;;;12.60;99.90;;;;;;5043091;28;20212;-49
2023/02/20 12:23:24;;;;;;;4.17;1.93;;;12.80;99.90;;;;;;5045634;28;20259;-50
2023/02/20 12:26:02;;;;;;;2.70;2.50;;;12.80;99.90;;;;;;5062021;28;20203;-50
2023/02/20 12:28:38;;;;;;;2.53;2.33;;;12.70;99.90;;;;;;5055100;28;20229;-49
2023/02/20 12:31:20;;;;;;;2.67;2.07;;;12.80;99.90;;;;;;5054870;28;20203;-50
2023/02/20 12:34:13;;;;;;;2.00;1.90;;;12.80;99.90;;;;;;5062450;28;20236;-49
2023/02/20 12:36:43;;;;;;;3.83;1.90;;;13.00;99.90;;;;;;5068477;28;20277;-49
2023/02/20 12:39:23;;;;;;;5.17;1.80;;;13.00;99.90;;;;;;5070888;28;20205;-49
2023/02/20 12:42:04;;;;;;;5.60;2.17;;;13.10;99.90;;;;;;5066469;22;20281;-46
2023/02/20 12:45:03;;;;;;;4.70;2.20;;;13.20;99.90;;;;;;5029915;28;20212;-48
2023/02/20 12:47:33;;;;;;;3.23;2.20;;;13.10;99.90;;;;;;5024969;28;20229;-48
2023/02/20 12:50:33;;;;;;;3.17;2.13;;;13.20;99.90;;;;;;5033063;28;20209;-47
2023/02/20 12:53:24;;;;;;;10.93;3.53;;;13.30;99.90;;;;;;5028495;28;20280;-46
2023/02/20 12:56:03;;;;;;;2.07;1.97;;;13.30;99.90;;;;;;5037527;28;20612;-47
2023/02/20 12:58:42;;;;;;;3.13;2.43;;;13.40;99.90;;;;;;5046799;28;20253;-49
2023/02/20 13:01:12;;;;;;;5.37;2.67;;;13.50;99.90;;;;;;5050922;28;20273;-48
2023/02/20 13:03:46;;;;;;;4.17;2.90;;;13.60;99.90;;;;;;5050734;28;20218;-48
2023/02/20 13:06:20;;;;;;;2.63;2.43;;;13.30;99.90;;;;;;5046429;28;20209;-48
2023/02/20 13:08:56;;;;;;;3.40;2.63;;;13.10;99.90;;;;;;5032342;28;20626;-47
2023/02/20 13:11:29;;;;;;;4.30;2.70;;;13.00;99.90;;;;;;5042448;28;20244;-47
2023/02/20 13:14:06;;;;;;;5.70;4.17;;;12.90;99.90;;;;;;5050856;28;20261;-46
2023/02/20 13:16:40;;;;;;;4.97;2.23;;;13.00;99.90;;;;;;5050686;28;20616;-46
2023/02/20 13:19:19;;;;;;;2.60;2.50;;;13.10;99.90;;;;;;5050805;28;20260;-47
2023/02/20 13:21:46;;;;;;;3.13;2.83;;;13.20;99.90;;;;;;5050595;28;20619;-47
2023/02/20 13:24:27;;;;;;;3.50;2.60;;;13.30;99.90;;;;;;5039605;28;20198;-48
2023/02/20 13:26:57;;;;;;;4.93;2.30;;;13.30;99.90;;;;;;5031040;28;20226;-48